Time;durP1;ratioP1;P1;durP2;ratioP2;P2;SDS_P1;SDS_P2;PMS_P1;PMS_P2;Temp;Humidity;BMP_temperature;BMP_pressure;BME280_temperature;BME280_humidity;BME280_pressure;Samples;Min_cycle;Max_cycle;Signal;HPM_P1;HPM_P2
2023/10/31 00:00:13;;;;;;;12.07;8.57;;;;;;;9.19;100.00;99645.69;4880378;29;20105;-74
2023/10/31 00:02:39;;;;;;;11.45;8.43;;;;;;;9.20;100.00;99651.88;4880115;29;20035;-74
2023/10/31 00:05:05;;;;;;;15.98;10.40;;;;;;;9.20;100.00;99659.78;4880279;29;20072;-74
2023/10/31 00:07:30;;;;;;;16.40;10.63;;;;;;;9.19;100.00;99663.31;4880096;29;20093;-74
2023/10/31 00:09:56;;;;;;;14.55;10.32;;;;;;;9.22;100.00;99671.13;4847856;29;20060;-73
2023/10/31 00:12:21;;;;;;;13.02;10.68;;;;;;;9.23;100.00;99657.88;4880054;29;20040;-73
2023/10/31 00:14:47;;;;;;;12.63;10.80;;;;;;;9.26;100.00;99667.47;4880194;29;20055;-73
2023/10/31 00:17:12;;;;;;;16.05;11.43;;;;;;;9.29;100.00;99662.06;4880075;29;20045;-73
2023/10/31 00:19:38;;;;;;;11.57;10.30;;;;;;;9.28;100.00;99668.28;4880162;29;20075;-73
2023/10/31 00:22:03;;;;;;;12.25;10.07;;;;;;;9.30;100.00;99686.72;4879745;29;20044;-73
2023/10/31 00:24:29;;;;;;;13.38;9.10;;;;;;;9.31;100.00;99685.81;4879732;29;20053;-73
2023/10/31 00:26:54;;;;;;;12.20;8.65;;;;;;;9.31;100.00;99686.66;4877237;29;20051;-73
2023/10/31 00:29:20;;;;;;;16.08;7.78;;;;;;;9.31;100.00;99683.16;4862896;29;20073;-72
2023/10/31 00:31:45;;;;;;;14.65;7.90;;;;;;;9.30;100.00;99682.31;4861435;29;20500;-73
2023/10/31 00:34:11;;;;;;;16.17;8.05;;;;;;;9.30;100.00;99681.44;4878398;29;20049;-72
2023/10/31 00:36:36;;;;;;;11.57;7.25;;;;;;;9.29;100.00;99682.34;4879773;29;20081;-72
2023/10/31 00:39:02;;;;;;;9.80;6.68;;;;;;;9.25;100.00;99685.13;4879597;29;20037;-72
2023/10/31 00:41:27;;;;;;;12.70;6.60;;;;;;;9.25;100.00;99693.03;4879486;29;20112;-72
2023/10/31 00:43:53;;;;;;;8.05;6.00;;;;;;;9.26;100.00;99692.09;4862378;29;20058;-72
2023/10/31 00:46:18;;;;;;;10.98;5.40;;;;;;;9.25;100.00;99687.75;4879127;29;20072;-72
2023/10/31 00:48:43;;;;;;;10.20;5.07;;;;;;;9.22;100.00;99692.25;4879727;29;20124;-72
2023/10/31 00:51:09;;;;;;;12.20;4.95;;;;;;;9.24;100.00;99701.00;4862476;29;20045;-72
2023/10/31 00:53:34;;;;;;;10.25;4.13;;;;;;;9.23;100.00;99699.28;4862741;29;20053;-72
2023/10/31 00:56:00;;;;;;;9.45;3.70;;;;;;;9.21;100.00;99699.34;4862467;29;20132;-72
2023/10/31 00:58:25;;;;;;;9.82;3.60;;;;;;;9.22;100.00;99708.13;4847538;29;20051;-72
2023/10/31 01:00:51;;;;;;;6.95;3.30;;;;;;;9.20;100.00;99708.19;4847446;29;20378;-72
2023/10/31 01:03:16;;;;;;;12.13;3.50;;;;;;;9.21;100.00;99709.03;4862827;29;20046;-72
2023/10/31 01:05:42;;;;;;;10.55;3.40;;;;;;;9.20;100.00;99713.47;4862674;29;20037;-72
2023/10/31 01:08:08;;;;;;;6.28;2.67;;;;;;;9.20;100.00;99710.81;4879226;29;20064;-72
2023/10/31 01:10:34;;;;;;;5.72;2.67;;;;;;;9.19;100.00;99726.72;4879571;29;20041;-72
2023/10/31 01:12:59;;;;;;;6.22;2.85;;;;;;;9.16;100.00;99725.03;4862639;29;20048;-72
2023/10/31 01:15:25;;;;;;;6.10;2.40;;;;;;;9.17;100.00;99732.06;4879376;29;20059;-72
2023/10/31 01:17:51;;;;;;;5.47;2.35;;;;;;;9.17;100.00;99721.50;4879469;29;20048;-72
2023/10/31 01:20:17;;;;;;;7.30;2.60;;;;;;;9.18;100.00;99720.59;4879199;29;20056;-72
2023/10/31 01:22:42;;;;;;;7.22;2.67;;;;;;;9.20;100.00;99731.09;4862607;29;20096;-72
2023/10/31 01:25:08;;;;;;;6.70;2.85;;;;;;;9.20;100.00;99726.69;4862342;29;20049;-72
2023/10/31 01:27:33;;;;;;;5.22;2.75;;;;;;;9.20;100.00;99729.31;4876505;29;20041;-72
2023/10/31 01:29:59;;;;;;;7.88;3.30;;;;;;;9.19;100.00;99724.06;4862602;29;20440;-72
2023/10/31 01:32:24;;;;;;;7.22;4.20;;;;;;;9.19;100.00;99732.00;4878105;29;20044;-72
2023/10/31 01:34:50;;;;;;;13.43;5.68;;;;;;;9.16;100.00;99732.97;4879091;29;20116;-72
2023/10/31 01:37:15;;;;;;;10.80;5.93;;;;;;;9.16;100.00;99735.59;4862021;29;20703;-72
2023/10/31 01:39:41;;;;;;;16.38;7.32;;;;;;;9.16;100.00;99732.13;4878966;29;20048;-72
2023/10/31 01:42:06;;;;;;;16.63;8.57;;;;;;;9.13;100.00;99730.44;4878576;29;20072;-72
2023/10/31 01:44:32;;;;;;;15.27;9.25;;;;;;;9.17;100.00;99725.91;4862419;29;20452;-72
2023/10/31 01:46:57;;;;;;;19.67;11.57;;;;;;;9.14;100.00;99721.59;4878773;29;20051;-72
2023/10/31 01:49:23;;;;;;;20.08;13.20;;;;;;;9.16;100.00;99732.97;4878841;29;20052;-72
2023/10/31 01:51:49;;;;;;;23.90;14.25;;;;;;;9.18;100.00;99732.94;4861839;29;20068;-72
2023/10/31 01:54:15;;;;;;;25.67;17.83;;;;;;;9.18;100.00;99739.06;4846764;29;20404;-72
2023/10/31 01:56:42;;;;;;;25.42;17.35;;;;;;;9.18;100.00;99735.56;4861829;29;20101;-74
2023/10/31 01:59:09;;;;;;;27.73;19.20;;;;;;;9.20;100.00;99729.31;4861808;29;20064;-73
2023/10/31 02:01:41;;;;;;;29.92;20.20;;;;;;;9.21;100.00;99732.81;4861748;29;20425;-73
2023/10/31 02:04:07;;;;;;;31.48;22.40;;;;;;;9.20;100.00;99734.59;4861527;29;20140;-73
2023/10/31 02:06:32;;;;;;;32.13;22.08;;;;;;;9.20;100.00;99734.59;4878455;29;20445;-73
2023/10/31 02:08:57;;;;;;;33.58;23.30;;;;;;;9.20;100.00;99745.16;4861437;29;20148;-73
2023/10/31 02:11:23;;;;;;;37.50;25.38;;;;;;;9.21;100.00;99744.25;4861470;29;20037;-72
2023/10/31 02:13:48;;;;;;;41.85;29.13;;;;;;;9.22;100.00;99743.34;4861553;29;20039;-72
2023/10/31 02:16:14;;;;;;;40.63;28.55;;;;;;;9.23;100.00;99745.06;4846324;29;20515;-72
2023/10/31 02:18:39;;;;;;;37.83;26.05;;;;;;;9.23;100.00;99746.84;4861398;29;20037;-72
2023/10/31 02:21:05;;;;;;;39.75;28.73;;;;;;;9.25;100.00;99750.31;4878310;29;20040;-72
2023/10/31 02:23:30;;;;;;;41.55;29.50;;;;;;;9.26;100.00;99744.94;4878047;29;20060;-72
2023/10/31 02:25:57;;;;;;;45.10;31.27;;;;;;;9.30;100.00;99743.09;4861273;29;20037;-72
2023/10/31 02:28:27;;;;;;;46.60;30.02;;;;;;;9.31;100.00;99741.28;4858522;29;20073;-72
2023/10/31 02:30:53;;;;;;;48.13;31.90;;;;;;;9.31;100.00;99746.56;4860179;29;20056;-72
2023/10/31 02:33:18;;;;;;;48.78;31.83;;;;;;;9.33;100.00;99742.97;4876586;29;20040;-72
2023/10/31 02:35:45;;;;;;;49.30;33.78;;;;;;;9.33;100.00;99736.81;4877634;29;20064;-72
2023/10/31 02:38:10;;;;;;;46.78;30.90;;;;;;;9.34;100.00;99735.91;4878604;29;20040;-72
2023/10/31 02:40:36;;;;;;;52.13;33.40;;;;;;;9.36;100.00;99745.50;4861209;29;20352;-72
2023/10/31 02:43:02;;;;;;;48.88;33.25;;;;;;;9.37;100.00;99743.72;4861328;29;20052;-72
2023/10/31 02:45:28;;;;;;;51.50;35.13;;;;;;;9.36;100.00;99750.78;4877731;29;20506;-72
2023/10/31 02:47:53;;;;;;;52.50;36.08;;;;;;;9.38;100.00;99751.59;4861244;29;20077;-72
2023/10/31 02:50:19;;;;;;;54.83;35.45;;;;;;;9.39;100.00;99749.81;4860877;29;20048;-72
2023/10/31 02:52:44;;;;;;;55.05;37.25;;;;;;;9.38;100.00;99756.03;4842572;29;20034;-73
2023/10/31 02:55:10;;;;;;;53.42;34.85;;;;;;;9.40;100.00;99757.69;4845983;29;20086;-74
2023/10/31 02:57:35;;;;;;;47.97;33.22;;;;;;;9.41;100.00;99766.47;4863883;29;20136;-73
2023/10/31 03:00:01;;;;;;;52.45;34.20;;;;;;;9.40;100.00;99765.63;4865066;29;20045;-73
2023/10/31 03:02:26;;;;;;;50.55;33.05;;;;;;;9.42;100.00;99762.91;4864871;29;20033;-73
2023/10/31 03:04:52;;;;;;;43.97;32.08;;;;;;;9.41;100.00;99762.06;4849506;29;20037;-73
2023/10/31 03:07:17;;;;;;;49.70;34.35;;;;;;;9.41;100.00;99767.34;4881343;29;20089;-73
2023/10/31 03:09:43;;;;;;;45.28;29.48;;;;;;;9.40;100.00;99768.25;4864798;29;20061;-73
2023/10/31 03:12:08;;;;;;;45.55;32.08;;;;;;;9.41;100.00;99777.91;4864784;29;20056;-73
2023/10/31 03:14:34;;;;;;;44.58;29.05;;;;;;;9.40;100.00;99772.69;4864619;29;20037;-73
2023/10/31 03:16:59;;;;;;;44.80;29.40;;;;;;;9.41;100.00;99780.56;4881523;29;20036;-72
2023/10/31 03:19:25;;;;;;;46.28;30.60;;;;;;;9.41;100.00;99777.06;4864517;29;20041;-72
2023/10/31 03:21:51;;;;;;;47.53;33.22;;;;;;;9.41;100.00;99793.75;4864461;29;20058;-72
2023/10/31 03:24:16;;;;;;;46.58;29.88;;;;;;;9.42;100.00;99784.06;4881381;29;20119;-72
2023/10/31 03:26:42;;;;;;;37.92;28.15;;;;;;;9.42;100.00;99791.97;4861403;29;20073;-72
2023/10/31 03:29:07;;;;;;;46.03;30.85;;;;;;;9.41;100.00;99804.34;4849018;29;20093;-72
2023/10/31 03:31:33;;;;;;;40.47;29.00;;;;;;;9.42;100.00;99806.06;4880361;29;20041;-72
2023/10/31 03:33:58;;;;;;;42.90;29.38;;;;;;;9.42;100.00;99806.06;4864141;29;20101;-73
2023/10/31 03:36:24;;;;;;;41.53;29.30;;;;;;;9.42;100.00;99807.84;4864084;29;20036;-73
2023/10/31 03:38:49;;;;;;;42.80;28.90;;;;;;;9.41;100.00;99812.25;4864302;29;20121;-72
2023/10/31 03:41:15;;;;;;;39.10;27.35;;;;;;;9.43;100.00;99817.50;4880982;29;20063;-72
2023/10/31 03:43:40;;;;;;;38.20;26.83;;;;;;;9.41;100.00;99816.69;4864164;29;20101;-72
2023/10/31 03:46:06;;;;;;;40.97;28.77;;;;;;;9.44;100.00;99821.84;4863960;29;20076;-72
2023/10/31 03:48:31;;;;;;;40.03;27.48;;;;;;;9.40;100.00;99823.75;4864143;29;20454;-72
2023/10/31 03:50:57;;;;;;;36.33;25.88;;;;;;;9.44;100.00;99825.34;4848502;29;20520;-72
2023/10/31 03:53:22;;;;;;;39.20;28.40;;;;;;;9.43;100.00;99831.56;4863993;29;20141;-72
2023/10/31 03:55:48;;;;;;;40.33;28.92;;;;;;;9.42;100.00;99831.63;4880838;29;20033;-72
2023/10/31 03:58:14;;;;;;;41.15;30.77;;;;;;;9.43;100.00;99836.84;4863887;29;20048;-72
2023/10/31 04:00:40;;;;;;;43.70;31.60;;;;;;;9.45;100.00;99847.41;4863622;29;20088;-73
2023/10/31 04:03:07;;;;;;;43.75;30.40;;;;;;;9.45;100.00;99840.31;4864046;29;20085;-72
2023/10/31 04:05:32;;;;;;;41.35;30.75;;;;;;;9.47;100.00;99854.34;4880515;29;20037;-72
2023/10/31 04:07:58;;;;;;;43.80;31.58;;;;;;;9.46;100.00;99846.47;4879040;29;20491;-72
2023/10/31 04:10:25;;;;;;;45.67;31.45;;;;;;;9.46;100.00;99851.75;4880395;29;20037;-72
2023/10/31 04:12:50;;;;;;;41.40;28.95;;;;;;;9.45;100.00;99848.25;4848322;29;20051;-72
2023/10/31 04:15:16;;;;;;;45.67;33.00;;;;;;;9.46;100.00;99855.25;4880384;29;20037;-72
2023/10/31 04:17:41;;;;;;;45.35;30.98;;;;;;;9.47;100.00;99857.00;4880484;29;20096;-73
2023/10/31 04:20:07;;;;;;;46.85;31.85;;;;;;;9.50;100.00;99858.66;4863863;29;20049;-73
2023/10/31 04:22:33;;;;;;;48.80;34.60;;;;;;;9.50;100.00;99858.66;4880203;29;20045;-73
2023/10/31 04:24:58;;;;;;;40.17;30.48;;;;;;;9.49;100.00;99856.91;4880221;29;20116;-73
2023/10/31 04:27:24;;;;;;;44.83;33.83;;;;;;;9.50;100.00;99853.38;4876867;29;20171;-73
2023/10/31 04:29:49;;;;;;;42.42;29.35;;;;;;;9.50;100.00;99858.66;4863706;29;20037;-72
2023/10/31 04:32:15;;;;;;;39.92;28.70;;;;;;;9.50;100.00;99869.25;4878652;29;20513;-72
2023/10/31 04:34:40;;;;;;;41.28;28.27;;;;;;;9.47;100.00;99870.22;4880014;29;20089;-72
2023/10/31 04:37:06;;;;;;;45.03;29.60;;;;;;;9.45;100.00;99864.09;4880053;29;20067;-72
2023/10/31 04:39:32;;;;;;;43.60;29.17;;;;;;;9.42;100.00;99869.50;4880103;29;20323;-72
2023/10/31 04:41:57;;;;;;;37.70;27.92;;;;;;;9.44;100.00;99872.06;4863040;29;20041;-72
2023/10/31 04:44:22;;;;;;;39.03;27.70;;;;;;;9.43;100.00;99873.84;4879627;29;20084;-72
2023/10/31 04:46:48;;;;;;;41.50;29.83;;;;;;;9.41;100.00;99880.09;4879690;29;20049;-72
2023/10/31 04:49:15;;;;;;;39.90;26.95;;;;;;;9.40;100.00;99888.97;4863056;29;20056;-74
2023/10/31 04:51:40;;;;;;;41.22;28.27;;;;;;;9.41;100.00;99888.03;4863097;29;20169;-74
2023/10/31 04:54:06;;;;;;;36.10;25.88;;;;;;;9.39;100.00;99888.06;4879942;29;20067;-74
2023/10/31 04:56:31;;;;;;;36.25;26.38;;;;;;;9.40;100.00;99892.47;4879721;29;20049;-73
2023/10/31 04:58:57;;;;;;;36.10;26.48;;;;;;;9.40;100.00;99892.47;4879601;29;20053;-74
2023/10/31 05:01:22;;;;;;;36.40;25.83;;;;;;;9.38;100.00;99899.56;4879652;29;20045;-74
2023/10/31 05:03:48;;;;;;;39.53;24.77;;;;;;;9.38;100.00;99898.72;4862738;29;20056;-74
2023/10/31 05:06:19;;;;;;;35.20;26.45;;;;;;;9.42;100.00;99897.69;4879567;29;20036;-74
2023/10/31 05:08:45;;;;;;;38.72;26.42;;;;;;;9.39;100.00;99908.34;4879464;29;20065;-74
2023/10/31 05:11:10;;;;;;;35.35;24.85;;;;;;;9.35;100.00;99907.59;4862777;29;20044;-74
2023/10/31 05:13:36;;;;;;;39.83;26.95;;;;;;;9.33;100.00;99911.19;4879589;29;20049;-74
2023/10/31 05:16:01;;;;;;;35.25;25.10;;;;;;;9.32;100.00;99907.72;4879592;29;20044;-74
2023/10/31 05:18:27;;;;;;;39.88;26.02;;;;;;;9.31;100.00;99907.75;4879417;29;20057;-74
2023/10/31 05:20:52;;;;;;;35.22;25.08;;;;;;;9.32;100.00;99914.75;4878884;29;20072;-74
2023/10/31 05:23:17;;;;;;;36.80;26.13;;;;;;;9.30;100.00;99901.59;4879328;29;20481;-74
2023/10/31 05:25:43;;;;;;;35.33;25.27;;;;;;;9.29;100.00;99899.00;4862279;29;20068;-74
2023/10/31 05:28:08;;;;;;;36.85;25.55;;;;;;;9.29;100.00;99899.84;4862305;29;20040;-74
2023/10/31 05:30:34;;;;;;;37.97;26.40;;;;;;;9.27;100.00;99909.59;4879029;29;20045;-74
2023/10/31 05:32:59;;;;;;;37.13;25.15;;;;;;;9.26;100.00;99914.03;4877349;29;20147;-74
2023/10/31 05:35:25;;;;;;;36.13;25.10;;;;;;;9.24;100.00;99918.47;4862165;29;20049;-74
2023/10/31 05:37:51;;;;;;;37.13;26.08;;;;;;;9.23;100.00;99929.97;4862216;29;20049;-74
2023/10/31 05:40:16;;;;;;;32.13;24.42;;;;;;;9.22;100.00;99933.53;4879091;29;20067;-74
2023/10/31 05:42:42;;;;;;;33.75;24.30;;;;;;;9.23;100.00;99940.53;4878815;29;20101;-74
2023/10/31 05:45:08;;;;;;;31.92;24.65;;;;;;;9.23;100.00;99935.25;4862059;29;20052;-75
2023/10/31 05:47:33;;;;;;;29.63;23.55;;;;;;;9.23;100.00;99945.81;4878941;29;20048;-74
2023/10/31 05:49:59;;;;;;;32.20;22.75;;;;;;;9.23;100.00;99952.91;4862029;29;20037;-74
2023/10/31 05:52:29;;;;;;;32.10;23.75;;;;;;;9.21;100.00;99952.94;4878704;29;20049;-74
2023/10/31 05:54:55;;;;;;;32.30;23.42;;;;;;;9.23;100.00;99956.41;4862336;29;20500;-74
2023/10/31 05:57:20;;;;;;;28.88;23.50;;;;;;;9.22;100.00;99953.78;4878421;29;20037;-74
2023/10/31 05:59:46;;;;;;;30.90;22.98;;;;;;;9.24;100.00;99962.53;4862142;29;20505;-74
2023/10/31 06:02:13;;;;;;;27.67;22.02;;;;;;;9.22;100.00;99962.59;4861845;29;20169;-74
2023/10/31 06:04:38;;;;;;;28.75;22.05;;;;;;;9.22;100.00;99964.34;4878686;29;20041;-74
2023/10/31 06:07:04;;;;;;;28.58;23.77;;;;;;;9.24;100.00;99975.75;4878635;29;20080;-74
2023/10/31 06:09:29;;;;;;;31.05;22.55;;;;;;;9.23;100.00;99981.94;4861812;29;20104;-73
2023/10/31 06:11:55;;;;;;;29.23;23.17;;;;;;;9.24;100.00;99989.81;4878587;29;20445;-74
2023/10/31 06:14:20;;;;;;;29.17;22.38;;;;;;;9.24;100.00;99981.03;4861799;29;20041;-74
2023/10/31 06:16:45;;;;;;;29.10;22.77;;;;;;;9.23;100.00;99984.59;4878448;29;20060;-74
2023/10/31 06:19:11;;;;;;;28.67;23.55;;;;;;;9.20;100.00;99980.28;4878165;29;20108;-74
2023/10/31 06:21:37;;;;;;;27.23;21.52;;;;;;;9.22;100.00;99996.06;4878375;29;20056;-74
2023/10/31 06:24:03;;;;;;;27.63;21.08;;;;;;;9.21;100.00;99994.34;4878088;29;20079;-74
2023/10/31 06:26:29;;;;;;;23.75;19.92;;;;;;;9.22;100.00;100007.50;4875999;29;20049;-74
2023/10/31 06:28:54;;;;;;;24.35;20.63;;;;;;;9.19;100.00;100006.72;4875984;29;20131;-74
2023/10/31 06:31:20;;;;;;;26.15;21.33;;;;;;;9.20;100.00;100014.63;4877036;29;20120;-74
2023/10/31 06:33:46;;;;;;;25.60;20.25;;;;;;;9.21;100.00;100012.81;4876596;29;20499;-74
2023/10/31 06:36:11;;;;;;;25.85;20.10;;;;;;;9.19;100.00;100012.84;4861370;29;20097;-74
2023/10/31 06:38:37;;;;;;;25.85;20.35;;;;;;;9.18;100.00;100015.56;4877878;29;20028;-74
2023/10/31 06:41:03;;;;;;;22.52;18.92;;;;;;;9.17;100.00;100009.44;4877909;29;20123;-74
2023/10/31 06:43:28;;;;;;;22.38;18.42;;;;;;;9.16;100.00;100017.38;4861436;29;20057;-74
2023/10/31 06:45:54;;;;;;;24.77;20.20;;;;;;;9.12;100.00;100011.31;4877829;29;20076;-73
2023/10/31 06:48:20;;;;;;;23.63;18.63;;;;;;;9.13;100.00;100022.75;4879190;29;20056;-73
2023/10/31 06:50:46;;;;;;;22.90;18.45;;;;;;;9.14;100.00;100013.91;4868532;29;20120;-74
2023/10/31 06:53:11;;;;;;;21.80;17.92;;;;;;;9.14;100.00;100029.75;4879855;29;20132;-74
2023/10/31 06:55:37;;;;;;;23.48;19.27;;;;;;;9.13;100.00;100025.41;4885742;29;20071;-73
2023/10/31 06:58:03;;;;;;;24.52;19.52;;;;;;;9.14;100.00;100029.75;4895111;29;20033;-73
2023/10/31 07:00:28;;;;;;;23.92;19.85;;;;;;;9.12;100.00;100039.50;4892900;29;20135;-74
2023/10/31 07:02:54;;;;;;;25.98;21.25;;;;;;;9.12;100.00;100035.06;4879023;29;20045;-73
2023/10/31 07:05:20;;;;;;;25.98;20.35;;;;;;;9.12;100.00;100036.84;4881856;29;20036;-73
2023/10/31 07:07:47;;;;;;;24.15;20.25;;;;;;;9.10;100.00;100026.38;4888706;29;20048;-74
2023/10/31 07:10:12;;;;;;;23.65;19.27;;;;;;;9.13;100.00;100023.63;4881609;29;20123;-73
2023/10/31 07:12:38;;;;;;;24.17;19.95;;;;;;;9.13;100.00;100028.03;4884550;29;20128;-73
2023/10/31 07:15:04;;;;;;;26.15;22.23;;;;;;;9.14;100.00;100035.03;4877759;29;20036;-75
2023/10/31 07:17:30;;;;;;;24.35;20.00;;;;;;;9.12;100.00;100035.06;4860928;29;20041;-75
2023/10/31 07:19:55;;;;;;;23.35;19.98;;;;;;;9.13;100.00;100034.19;4877701;29;20049;-75
2023/10/31 07:22:22;;;;;;;23.05;20.23;;;;;;;9.13;100.00;100035.97;4877664;29;20123;-75
2023/10/31 07:24:48;;;;;;;24.25;19.95;;;;;;;9.14;100.00;100025.34;4877445;29;20400;-75
2023/10/31 07:27:13;;;;;;;22.80;19.67;;;;;;;9.16;100.00;100027.94;4878247;29;20041;-75
2023/10/31 07:29:40;;;;;;;26.30;21.05;;;;;;;9.14;100.00;100041.19;4877393;29;20051;-75
2023/10/31 07:32:06;;;;;;;23.38;20.77;;;;;;;9.08;100.00;100028.19;4876053;29;20040;-75
2023/10/31 07:34:32;;;;;;;24.85;18.88;;;;;;;9.13;100.00;100038.63;4860721;29;20053;-75
2023/10/31 07:36:57;;;;;;;30.42;21.05;;;;;;;9.12;100.00;100042.16;4877347;29;20064;-75
2023/10/31 07:39:22;;;;;;;24.33;21.38;;;;;;;9.11;100.00;100051.00;4879939;29;20049;-75
2023/10/31 07:41:48;;;;;;;23.95;20.90;;;;;;;9.08;100.00;100049.31;4879724;29;20069;-74
2023/10/31 07:44:13;;;;;;;24.60;20.52;;;;;;;9.06;100.00;100045.84;4864373;29;20041;-75
2023/10/31 07:46:39;;;;;;;22.15;18.20;;;;;;;9.11;100.00;100051.00;4880784;29;20040;-75
2023/10/31 07:49:04;;;;;;;21.33;17.85;;;;;;;9.09;100.00;100058.09;4881122;29;20040;-74
2023/10/31 07:51:31;;;;;;;23.20;20.33;;;;;;;9.10;100.00;100054.53;4880806;29;20404;-75
2023/10/31 07:53:58;;;;;;;23.90;20.23;;;;;;;9.12;100.00;100060.63;4864069;29;20123;-75
2023/10/31 07:56:25;;;;;;;23.98;19.52;;;;;;;9.13;100.00;100049.19;4864021;29;20404;-76
2023/10/31 07:58:51;;;;;;;23.52;20.00;;;;;;;9.19;100.00;100056.91;4880749;29;20104;-75
2023/10/31 08:01:17;;;;;;;23.38;18.98;;;;;;;9.23;100.00;100066.50;4880897;29;20044;-75
2023/10/31 08:03:43;;;;;;;23.40;18.73;;;;;;;9.27;100.00;100070.75;4880638;29;20097;-75
2023/10/31 08:06:10;;;;;;;22.17;18.50;;;;;;;9.31;100.00;100063.63;4880740;29;20044;-75
2023/10/31 08:08:36;;;;;;;22.83;18.65;;;;;;;9.36;100.00;100065.22;4863696;29;20060;-75
2023/10/31 08:11:01;;;;;;;22.15;18.67;;;;;;;9.36;100.00;100070.50;4845459;29;20045;-75
2023/10/31 08:13:27;;;;;;;20.95;18.73;;;;;;;9.38;100.00;100066.03;4875864;29;20048;-75
2023/10/31 08:15:52;;;;;;;29.17;19.08;;;;;;;9.39;100.00;100069.53;4880419;29;20095;-75
2023/10/31 08:18:18;;;;;;;22.05;19.65;;;;;;;9.42;100.00;100080.91;4880616;29;20056;-75
2023/10/31 08:20:46;;;;;;;21.25;18.95;;;;;;;9.41;100.00;100075.66;4846642;29;20542;-75
2023/10/31 08:23:11;;;;;;;23.88;19.02;;;;;;;9.47;100.00;100079.00;4880458;29;20092;-75
2023/10/31 08:25:37;;;;;;;22.88;19.33;;;;;;;9.50;100.00;100079.81;4891614;29;20124;-75
2023/10/31 08:28:02;;;;;;;26.08;19.83;;;;;;;9.53;100.00;100088.50;4879996;29;20033;-75
2023/10/31 08:30:28;;;;;;;20.70;18.50;;;;;;;9.53;100.00;100082.38;4863193;29;20640;-75
2023/10/31 08:32:53;;;;;;;25.35;20.50;;;;;;;9.59;100.00;100087.44;4878515;29;20052;-75
2023/10/31 08:35:19;;;;;;;28.23;22.50;;;;;;;9.68;100.00;100084.53;4863414;29;20068;-75
2023/10/31 08:37:44;;;;;;;28.38;23.30;;;;;;;9.73;100.00;100092.34;4880238;29;20037;-75
2023/10/31 08:40:10;;;;;;;28.80;22.88;;;;;;;9.75;100.00;100083.44;4880199;29;20525;-75
2023/10/31 08:42:35;;;;;;;27.92;23.65;;;;;;;9.72;100.00;100091.47;4863380;29;20353;-75
2023/10/31 08:45:01;;;;;;;27.65;22.33;;;;;;;9.80;100.00;100091.25;4879876;29;20056;-74
2023/10/31 08:47:28;;;;;;;31.10;23.33;;;;;;;9.78;100.00;100086.00;4863269;29;20045;-75
2023/10/31 08:49:53;;;;;;;28.70;23.73;;;;;;;9.80;100.00;100109.75;4863508;29;20036;-74
2023/10/31 08:52:18;;;;;;;29.25;25.15;;;;;;;9.80;100.00;100107.97;4862727;29;20502;-75
2023/10/31 08:54:44;;;;;;;29.77;24.98;;;;;;;9.87;100.00;100122.72;4879283;29;20094;-75
2023/10/31 08:57:09;;;;;;;35.47;26.90;;;;;;;9.92;100.00;100127.88;4879509;29;20473;-74
2023/10/31 08:59:35;;;;;;;34.30;25.85;;;;;;;9.99;100.00;100126.78;4879609;29;20134;-75
2023/10/31 09:02:01;;;;;;;32.97;26.48;;;;;;;9.98;100.00;100129.47;4862974;29;20049;-74
2023/10/31 09:04:27;;;;;;;34.08;26.67;;;;;;;10.00;100.00;100138.22;4879724;29;20036;-74
2023/10/31 09:06:52;;;;;;;38.80;26.17;;;;;;;10.02;100.00;100142.56;4847440;29;20097;-74
2023/10/31 09:09:18;;;;;;;37.25;27.90;;;;;;;10.08;100.00;100142.34;4879512;29;20053;-74
2023/10/31 09:11:43;;;;;;;36.75;27.63;;;;;;;10.09;100.00;100146.75;4862828;29;20124;-74
2023/10/31 09:14:09;;;;;;;32.67;24.25;;;;;;;10.08;100.00;100144.16;4879385;29;20037;-74
2023/10/31 09:16:35;;;;;;;31.42;24.40;;;;;;;10.12;100.00;100141.34;4879557;29;20403;-74
2023/10/31 09:19:00;;;;;;;38.47;27.88;;;;;;;10.18;100.00;100155.31;4879327;29;20457;-74
2023/10/31 09:21:26;;;;;;;29.00;23.77;;;;;;;10.26;100.00;100153.28;4879299;29;20188;-75
2023/10/31 09:23:51;;;;;;;37.38;26.50;;;;;;;10.31;100.00;100154.03;4850020;29;20075;-75
2023/10/31 09:26:17;;;;;;;35.40;25.85;;;;;;;10.34;100.00;100159.25;4879412;29;20045;-74
2023/10/31 09:28:49;;;;;;;37.53;26.30;;;;;;;10.32;100.00;100167.22;4879157;29;20048;-75
2023/10/31 09:31:18;;;;;;;34.63;25.23;;;;;;;10.25;100.00;100168.28;4879149;29;20484;-74
2023/10/31 09:33:45;;;;;;;36.78;25.02;;;;;;;10.22;100.00;100178.97;4877623;29;20045;-74
2023/10/31 09:36:12;;;;;;;36.25;24.90;;;;;;;10.22;100.00;100186.06;4862084;29;20152;-75
2023/10/31 09:38:38;;;;;;;35.50;25.10;;;;;;;10.17;100.00;100186.19;4862111;29;20037;-75
2023/10/31 09:41:04;;;;;;;34.55;23.63;;;;;;;10.16;100.00;100184.44;4862201;29;20052;-75
2023/10/31 09:43:30;;;;;;;32.20;24.02;;;;;;;10.20;100.00;100188.75;4879027;29;20125;-75
2023/10/31 09:45:57;;;;;;;34.38;22.65;;;;;;;10.24;100.00;100197.47;4878729;29;20136;-75
2023/10/31 09:48:23;;;;;;;33.38;22.35;;;;;;;10.25;100.00;100185.97;4878914;29;20040;-75
2023/10/31 09:50:49;;;;;;;31.48;23.10;;;;;;;10.29;100.00;100187.63;4878733;29;20454;-76
2023/10/31 09:53:19;;;;;;;30.27;22.00;;;;;;;10.37;100.00;100190.03;4862184;29;20041;-75
2023/10/31 09:55:45;;;;;;;32.22;23.65;;;;;;;10.39;100.00;100191.72;4865991;29;20473;-74
2023/10/31 09:58:11;;;;;;;30.65;22.40;;;;;;;10.45;100.00;100196.81;4878854;29;20040;-75
2023/10/31 10:00:37;;;;;;;32.42;22.90;;;;;;;10.47;100.00;100196.78;4878708;29;20124;-75
2023/10/31 10:03:09;;;;;;;30.75;21.52;;;;;;;10.48;100.00;100209.09;4878759;29;20044;-74
2023/10/31 10:05:39;;;;;;;30.15;21.10;;;;;;;10.43;100.00;100211.88;4861608;29;20045;-75
2023/10/31 10:08:04;;;;;;;26.17;20.92;;;;;;;10.41;100.00;100223.41;4878406;29;20104;-75
2023/10/31 10:10:31;;;;;;;31.52;19.30;;;;;;;10.39;100.00;100230.56;4861692;29;20580;-74
2023/10/31 10:12:58;;;;;;;29.80;21.23;;;;;;;10.28;100.00;100228.22;4878445;29;20041;-75
2023/10/31 10:15:24;;;;;;;28.45;22.58;;;;;;;10.23;100.00;100233.63;4846354;29;20033;-75
2023/10/31 10:17:53;;;;;;;28.40;21.08;;;;;;;10.24;100.00;100247.75;4861695;29;20481;-75
2023/10/31 10:20:19;;;;;;;29.30;21.15;;;;;;;10.23;100.00;100236.28;4878342;29;20041;-75
2023/10/31 10:22:45;;;;;;;35.38;21.02;;;;;;;10.28;100.00;100244.97;4878306;29;20044;-75
2023/10/31 10:25:15;;;;;;;33.55;22.15;;;;;;;10.32;100.00;100235.19;4878223;29;20041;-75
2023/10/31 10:27:41;;;;;;;30.50;21.88;;;;;;;10.40;100.00;100254.31;4873372;29;20055;-76
2023/10/31 10:30:08;;;;;;;30.52;22.40;;;;;;;10.47;100.00;100249.72;4878183;29;20044;-75
2023/10/31 10:32:34;;;;;;;29.98;21.48;;;;;;;10.48;100.00;100240.84;4876133;29;20045;-76
2023/10/31 10:35:00;;;;;;;34.83;22.75;;;;;;;10.43;100.00;100248.94;4878124;29;20032;-75
2023/10/31 10:37:30;;;;;;;33.05;22.90;;;;;;;10.46;100.00;100253.25;4877971;29;20056;-75
2023/10/31 10:39:56;;;;;;;30.80;21.35;;;;;;;10.53;100.00;100260.09;4878040;29;20037;-75
2023/10/31 10:42:33;;;;;;;29.38;21.73;;;;;;;10.62;100.00;100246.59;4878105;29;20045;-76
2023/10/31 10:45:02;;;;;;;30.85;21.42;;;;;;;10.79;100.00;100261.09;4877745;29;20569;-76
2023/10/31 10:47:29;;;;;;;31.10;20.95;;;;;;;10.88;100.00;100266.06;4878125;29;20037;-76
2023/10/31 10:49:57;;;;;;;26.50;19.73;;;;;;;10.95;100.00;100273.78;4879344;29;20160;-76
2023/10/31 10:52:35;;;;;;;25.15;21.33;;;;;;;11.09;100.00;100260.06;4877984;29;20041;-76
2023/10/31 10:55:11;;;;;;;27.13;20.27;;;;;;;11.29;100.00;100267.34;4877899;29;20037;-76
2023/10/31 10:57:42;;;;;;;24.35;17.70;;;;;;;11.45;100.00;100262.41;4867733;29;20069;-76
2023/10/31 11:00:09;;;;;;;25.02;18.33;;;;;;;11.54;100.00;100255.91;4866344;29;20044;-76
2023/10/31 11:02:36;;;;;;;26.27;19.63;;;;;;;11.72;100.00;100257.03;4886760;29;20041;-76
2023/10/31 11:05:07;;;;;;;25.33;18.95;;;;;;;11.86;100.00;100253.88;4883778;29;20036;-76
2023/10/31 11:07:34;;;;;;;24.38;19.45;;;;;;;11.80;100.00;100252.34;4877721;29;20059;-76